Terminal Aerodrome Forecast
Issued by NWS

Home | Current Version | Previous Version | Text Only | Print | Product List | Glossary Off
Versions: 1 2 3 4 5 6 7 8 9 10 11 12 13 14 15 16 17 18 19 20

000
FTUS43 KOAX 270144 AAA
TAFCDR
TAF AMD
KCDR 270144Z 2702/2724 VRB20G45KT 1SM +TSRA BKN030CB BKN200
     FM270230 04012KT P6SM BKN120
     FM270700 02006KT P6SM -RA BKN008
     FM271400 05009KT P6SM SCT012 OVC100
     FM272200 08013KT P6SM VCTS BKN100CB=

USA.gov is the U.S. government's official web portal to all federal, state and local government web resources and services.